Time;durP1;ratioP1;P1;durP2;ratioP2;P2;SDS_P1;SDS_P2;PMS_P1;PMS_P2;Temp;Humidity;BMP_temperature;BMP_pressure;BME280_temperature;BME280_humidity;BME280_pressure;Samples;Min_cycle;Max_cycle;Signal;HPM_P1;HPM_P2
2023/06/21 00:00:39;;;;;;;7.57;6.20;;;23.00;99.90;;;;;;5012264;28;20206;-62
2023/06/21 00:03:05;;;;;;;8.82;6.28;;;23.00;99.90;;;;;;5011962;28;20738;-62
2023/06/21 00:05:34;;;;;;;11.40;6.38;;;23.00;99.90;;;;;;5011372;28;20207;-62
2023/06/21 00:08:01;;;;;;;6.43;5.45;;;22.90;99.90;;;;;;5011089;28;20229;-63
2023/06/21 00:10:29;;;;;;;8.77;6.13;;;23.00;99.90;;;;;;5011785;28;20227;-63
2023/06/21 00:12:56;;;;;;;10.00;6.43;;;23.00;99.90;;;;;;5011740;28;20207;-63
2023/06/21 00:15:24;;;;;;;7.00;5.88;;;23.00;99.90;;;;;;5011363;28;20269;-63
2023/06/21 00:17:50;;;;;;;9.57;6.30;;;23.00;99.90;;;;;;5011424;28;20238;-63
2023/06/21 00:20:17;;;;;;;8.57;6.63;;;22.90;99.90;;;;;;5011416;28;20319;-62
2023/06/21 00:22:46;;;;;;;10.45;6.78;;;22.80;99.90;;;;;;5011278;28;20211;-61
2023/06/21 00:25:13;;;;;;;9.25;6.28;;;22.80;99.90;;;;;;5011219;28;20289;-61
2023/06/21 00:27:42;;;;;;;7.93;6.43;;;22.70;99.90;;;;;;5010601;28;20275;-60
2023/06/21 00:30:09;;;;;;;12.48;6.68;;;22.60;99.90;;;;;;5011044;28;20238;-59
2023/06/21 00:32:38;;;;;;;10.32;7.15;;;22.60;99.90;;;;;;5011119;28;20632;-61
2023/06/21 00:35:06;;;;;;;10.93;6.95;;;22.60;99.90;;;;;;5011434;28;20298;-59
2023/06/21 00:37:32;;;;;;;11.25;6.65;;;22.60;99.90;;;;;;5012244;28;20231;-62
2023/06/21 00:40:00;;;;;;;10.00;6.55;;;22.60;99.90;;;;;;5015053;28;20261;-61
2023/06/21 00:42:28;;;;;;;8.52;7.00;;;22.60;99.90;;;;;;5015447;28;20211;-61
2023/06/21 00:44:54;;;;;;;7.25;6.45;;;22.60;99.90;;;;;;5014983;28;20294;-61
2023/06/21 00:47:22;;;;;;;9.02;6.00;;;22.60;99.90;;;;;;5014916;28;20610;-61
2023/06/21 00:49:48;;;;;;;9.13;6.07;;;22.70;99.90;;;;;;5014817;28;20652;-61
2023/06/21 00:52:15;;;;;;;11.88;6.63;;;22.70;99.90;;;;;;5015204;28;20206;-60
2023/06/21 00:54:43;;;;;;;7.65;6.38;;;22.70;99.90;;;;;;5014814;28;20246;-60
2023/06/21 00:57:11;;;;;;;7.43;5.82;;;22.70;99.90;;;;;;5015123;28;20259;-60
2023/06/21 00:59:38;;;;;;;9.10;5.90;;;22.60;99.90;;;;;;5025334;28;20213;-61
2023/06/21 01:02:06;;;;;;;10.55;6.47;;;22.60;99.90;;;;;;5026844;28;20277;-61
2023/06/21 01:04:34;;;;;;;9.88;6.57;;;22.50;99.90;;;;;;5026855;28;20210;-61
2023/06/21 01:07:12;;;;;;;11.30;6.68;;;22.40;99.90;;;;;;5023834;28;20223;-61
2023/06/21 01:09:55;;;;;;;8.85;6.70;;;22.40;99.90;;;;;;5019984;28;20317;-61
2023/06/21 01:12:32;;;;;;;11.38;6.57;;;22.20;99.90;;;;;;5015108;28;20214;-61
2023/06/21 01:15:02;;;;;;;10.35;6.63;;;22.20;99.90;;;;;;5014445;28;20206;-61
2023/06/21 01:17:35;;;;;;;10.48;7.20;;;22.00;99.90;;;;;;5014663;28;20233;-61
2023/06/21 01:20:10;;;;;;;9.15;6.93;;;21.90;99.90;;;;;;5017692;28;20211;-61
2023/06/21 01:22:46;;;;;;;12.38;7.30;;;21.80;99.90;;;;;;5016323;28;20234;-60
2023/06/21 01:25:27;;;;;;;9.13;7.00;;;21.80;99.90;;;;;;5014301;28;20239;-61
2023/06/21 01:28:09;;;;;;;10.18;6.80;;;21.60;99.90;;;;;;5081251;22;20231;-52
2023/06/21 01:30:38;;;;;;;8.63;6.50;;;21.80;99.90;;;;;;5085171;28;20219;-53
2023/06/21 01:33:07;;;;;;;10.13;7.10;;;21.80;99.90;;;;;;5093364;28;20257;-52
2023/06/21 01:35:33;;;;;;;9.48;7.50;;;21.70;99.90;;;;;;5093473;28;20301;-52
2023/06/21 01:38:00;;;;;;;10.70;6.90;;;21.70;99.90;;;;;;5107506;28;20727;-52
2023/06/21 01:40:27;;;;;;;9.63;6.85;;;21.70;99.90;;;;;;5113779;28;20207;-53
2023/06/21 01:42:54;;;;;;;11.30;6.85;;;21.60;99.90;;;;;;5113737;28;20203;-52
2023/06/21 01:45:23;;;;;;;9.60;7.28;;;21.60;99.90;;;;;;5113665;28;20673;-52
2023/06/21 01:47:52;;;;;;;12.00;7.20;;;21.60;99.90;;;;;;5113659;28;20280;-52
2023/06/21 01:50:21;;;;;;;9.65;7.10;;;21.50;99.90;;;;;;5112894;27;20280;-52
2023/06/21 01:52:49;;;;;;;8.35;6.47;;;21.40;99.90;;;;;;5113651;28;20559;-53
2023/06/21 01:55:17;;;;;;;9.63;7.68;;;21.30;99.90;;;;;;5113590;28;20294;-52
2023/06/21 01:57:43;;;;;;;9.38;7.45;;;21.30;99.90;;;;;;5113365;28;20227;-54
2023/06/21 02:00:17;;;;;;;10.60;7.50;;;21.30;99.90;;;;;;5113400;28;20211;-53
2023/06/21 02:02:48;;;;;;;8.88;7.07;;;21.30;99.90;;;;;;5113812;28;20203;-53
2023/06/21 02:05:17;;;;;;;8.07;6.93;;;21.20;99.90;;;;;;5113311;28;20212;-52
2023/06/21 02:07:45;;;;;;;9.32;7.25;;;21.10;99.90;;;;;;5113071;28;20314;-53
2023/06/21 02:10:14;;;;;;;9.63;7.15;;;21.20;99.90;;;;;;5113192;28;20220;-52
2023/06/21 02:12:41;;;;;;;8.68;6.88;;;21.10;99.90;;;;;;5113146;28;20207;-52
2023/06/21 02:15:09;;;;;;;12.35;7.35;;;21.10;99.90;;;;;;5113194;28;20247;-53
2023/06/21 02:17:36;;;;;;;9.27;7.10;;;21.10;99.90;;;;;;5112724;28;20229;-53
2023/06/21 02:20:07;;;;;;;9.82;7.38;;;21.10;99.90;;;;;;5112978;28;20199;-53
2023/06/21 02:22:35;;;;;;;10.18;6.82;;;21.10;99.90;;;;;;5112961;28;20200;-53
2023/06/21 02:25:02;;;;;;;11.68;7.10;;;21.00;99.90;;;;;;5112710;28;20207;-53
2023/06/21 02:27:29;;;;;;;8.55;6.75;;;21.00;99.90;;;;;;5112285;28;20735;-53
2023/06/21 02:29:55;;;;;;;8.68;6.85;;;21.00;99.90;;;;;;5112889;28;20227;-52
2023/06/21 02:32:22;;;;;;;10.15;7.03;;;20.90;99.90;;;;;;5112808;28;20199;-54
2023/06/21 02:34:49;;;;;;;9.35;6.78;;;20.90;99.90;;;;;;5112685;28;20204;-52
2023/06/21 02:37:16;;;;;;;9.25;7.13;;;20.90;99.90;;;;;;5112280;28;20659;-52
2023/06/21 02:39:44;;;;;;;9.73;7.38;;;20.90;99.90;;;;;;5112399;28;20210;-53
2023/06/21 02:42:10;;;;;;;11.27;7.57;;;20.90;99.90;;;;;;5112650;28;20207;-53
2023/06/21 02:44:37;;;;;;;12.60;7.47;;;20.80;99.90;;;;;;5112572;28;20203;-53
2023/06/21 02:47:04;;;;;;;10.43;7.72;;;20.80;99.90;;;;;;5112054;28;20235;-53
2023/06/21 02:49:36;;;;;;;10.13;7.28;;;20.80;99.90;;;;;;5112296;28;20207;-53
2023/06/21 02:52:03;;;;;;;10.20;7.97;;;20.70;99.90;;;;;;5112222;28;20699;-54
2023/06/21 02:54:30;;;;;;;11.10;7.80;;;20.70;99.90;;;;;;5112168;28;20358;-52
2023/06/21 02:56:58;;;;;;;11.10;8.10;;;20.80;99.90;;;;;;5111778;28;20239;-53
2023/06/21 02:59:28;;;;;;;10.88;7.85;;;20.80;99.90;;;;;;5112261;28;20204;-52
2023/06/21 03:01:55;;;;;;;9.93;7.40;;;20.60;99.90;;;;;;5112049;28;20203;-54
2023/06/21 03:04:22;;;;;;;10.48;7.10;;;20.70;99.90;;;;;;5112256;28;20215;-53
2023/06/21 03:06:48;;;;;;;10.00;7.60;;;20.60;99.90;;;;;;5111905;28;20226;-52
2023/06/21 03:09:15;;;;;;;10.90;7.47;;;20.60;99.90;;;;;;5112122;28;20210;-53
2023/06/21 03:11:42;;;;;;;9.90;7.45;;;20.60;99.90;;;;;;5112011;28;20227;-52
2023/06/21 03:14:10;;;;;;;11.77;7.75;;;20.60;99.90;;;;;;5112329;28;20226;-52
2023/06/21 03:16:37;;;;;;;8.77;7.32;;;20.60;99.90;;;;;;5112151;28;20241;-55
2023/06/21 03:19:04;;;;;;;11.23;7.32;;;20.70;99.90;;;;;;5112394;28;20211;-53
2023/06/21 03:21:31;;;;;;;9.70;7.40;;;20.80;99.90;;;;;;5112155;28;20215;-53
2023/06/21 03:23:57;;;;;;;14.10;7.78;;;20.90;99.90;;;;;;5112278;28;20668;-54
2023/06/21 03:26:24;;;;;;;10.93;7.88;;;20.90;99.90;;;;;;5111641;28;20307;-52
2023/06/21 03:28:51;;;;;;;13.77;7.43;;;20.90;99.90;;;;;;5112466;28;20204;-52
2023/06/21 03:31:19;;;;;;;11.73;7.60;;;20.90;99.90;;;;;;5111996;28;20219;-52
2023/06/21 03:33:46;;;;;;;11.93;7.68;;;20.90;99.90;;;;;;5111631;28;20210;-53
2023/06/21 03:36:13;;;;;;;10.07;7.63;;;21.00;99.90;;;;;;5111651;28;20206;-53
2023/06/21 03:38:40;;;;;;;9.13;7.35;;;21.10;99.90;;;;;;5111560;28;20280;-53
2023/06/21 03:41:06;;;;;;;10.40;7.80;;;21.30;99.90;;;;;;5111849;28;20668;-53
2023/06/21 03:43:33;;;;;;;9.73;7.45;;;21.30;99.90;;;;;;5112059;28;20218;-52
2023/06/21 03:46:00;;;;;;;8.32;7.10;;;21.40;99.90;;;;;;5111396;28;20630;-54
2023/06/21 03:48:28;;;;;;;11.40;7.68;;;21.40;99.90;;;;;;5111673;28;20230;-53
2023/06/21 03:50:55;;;;;;;10.43;7.80;;;21.50;99.90;;;;;;5111715;28;20223;-53
2023/06/21 03:53:22;;;;;;;10.65;7.65;;;21.70;99.90;;;;;;5111962;28;20219;-53
2023/06/21 03:55:49;;;;;;;12.40;8.00;;;21.70;99.90;;;;;;5111676;28;20210;-53
2023/06/21 03:58:15;;;;;;;10.95;7.28;;;21.80;99.90;;;;;;5111262;28;20230;-52
2023/06/21 04:00:42;;;;;;;10.60;7.78;;;21.90;99.90;;;;;;5111607;28;20496;-52
2023/06/21 04:03:09;;;;;;;14.98;7.70;;;22.10;99.90;;;;;;5111471;28;20616;-53
2023/06/21 04:05:37;;;;;;;14.98;9.40;;;22.20;99.90;;;;;;5111587;28;20210;-53
2023/06/21 04:08:04;;;;;;;21.70;10.10;;;22.00;99.90;;;;;;5111104;28;20223;-53
2023/06/21 04:10:31;;;;;;;17.83;9.80;;;21.70;99.90;;;;;;5111323;28;20223;-53
2023/06/21 04:12:58;;;;;;;17.88;10.30;;;21.70;99.90;;;;;;5113317;28;20622;-53
2023/06/21 04:15:26;;;;;;;12.10;10.48;;;21.60;99.90;;;;;;5115418;28;20208;-53
2023/06/21 04:17:53;;;;;;;18.30;9.57;;;21.60;99.90;;;;;;5115010;28;20315;-53
2023/06/21 04:20:20;;;;;;;11.80;9.32;;;21.60;99.90;;;;;;5115341;28;20280;-52
2023/06/21 04:22:48;;;;;;;18.90;9.68;;;21.70;99.90;;;;;;5115204;28;20391;-52
2023/06/21 04:25:16;;;;;;;13.02;8.75;;;21.70;99.90;;;;;;5114910;28;20217;-53
2023/06/21 04:27:45;;;;;;;14.32;9.40;;;21.70;99.90;;;;;;5114678;28;20239;-53
2023/06/21 04:30:12;;;;;;;12.15;9.45;;;21.70;99.90;;;;;;5114814;28;20218;-52
2023/06/21 04:32:44;;;;;;;15.30;9.18;;;21.70;99.90;;;;;;5115145;28;20200;-53
2023/06/21 04:35:11;;;;;;;14.13;9.85;;;21.70;99.90;;;;;;5114972;28;20211;-54
2023/06/21 04:37:38;;;;;;;15.95;12.18;;;21.80;99.90;;;;;;5114549;28;20719;-53
2023/06/21 04:40:07;;;;;;;13.05;10.50;;;22.00;99.90;;;;;;5114715;28;20653;-53
2023/06/21 04:42:34;;;;;;;13.75;9.40;;;22.10;99.90;;;;;;5114606;28;20218;-55
2023/06/21 04:45:00;;;;;;;13.38;9.43;;;22.30;99.90;;;;;;5114989;28;20230;-53
2023/06/21 04:47:28;;;;;;;12.88;8.68;;;22.40;99.90;;;;;;5114322;28;20219;-52
2023/06/21 04:49:54;;;;;;;14.10;8.90;;;22.50;99.90;;;;;;5114629;28;20204;-52
2023/06/21 04:52:21;;;;;;;14.52;9.23;;;22.50;99.90;;;;;;5114498;28;20219;-52
2023/06/21 04:54:48;;;;;;;10.15;9.05;;;22.60;99.90;;;;;;5114469;28;20269;-54
2023/06/21 04:57:16;;;;;;;14.25;9.40;;;22.50;99.90;;;;;;5113914;28;20582;-52
2023/06/21 04:59:43;;;;;;;15.35;9.30;;;22.50;99.90;;;;;;5114542;28;20252;-53
2023/06/21 05:02:10;;;;;;;12.48;8.90;;;22.40;99.90;;;;;;5114481;28;20196;-52
2023/06/21 05:04:36;;;;;;;12.85;8.18;;;22.40;99.90;;;;;;5114697;28;20207;-52
2023/06/21 05:07:05;;;;;;;14.30;9.05;;;22.40;99.90;;;;;;5113842;28;20645;-53
2023/06/21 05:09:31;;;;;;;12.27;8.57;;;22.60;99.90;;;;;;5114459;28;20204;-53
2023/06/21 05:11:58;;;;;;;17.63;9.55;;;22.90;99.90;;;;;;5114365;28;20227;-53
2023/06/21 05:14:26;;;;;;;12.50;9.20;;;23.10;99.90;;;;;;5114207;28;20207;-53
2023/06/21 05:16:53;;;;;;;11.23;8.30;;;23.30;99.90;;;;;;5113535;28;20234;-54
2023/06/21 05:19:20;;;;;;;9.85;8.20;;;23.40;99.90;;;;;;5114039;28;20203;-53
2023/06/21 05:21:47;;;;;;;9.80;7.60;;;23.50;99.90;;;;;;5113961;28;20215;-53
2023/06/21 05:24:14;;;;;;;11.48;7.30;;;23.60;99.90;;;;;;5113827;28;20226;-53
2023/06/21 05:26:44;;;;;;;10.77;7.57;;;23.70;99.90;;;;;;5113694;28;20239;-54
2023/06/21 05:29:10;;;;;;;8.70;7.50;;;23.80;99.90;;;;;;5113948;28;20235;-54
2023/06/21 05:31:39;;;;;;;9.00;7.70;;;23.90;99.90;;;;;;5113716;28;20238;-53
2023/06/21 05:34:05;;;;;;;10.00;7.38;;;24.00;99.90;;;;;;5113796;28;20210;-53
2023/06/21 05:36:32;;;;;;;9.05;7.32;;;24.10;99.90;;;;;;5113552;28;20211;-53
2023/06/21 05:38:59;;;;;;;18.20;7.97;;;24.40;99.90;;;;;;5113473;28;20203;-54
2023/06/21 05:41:25;;;;;;;11.50;7.63;;;24.50;99.90;;;;;;5113906;28;20199;-54
2023/06/21 05:43:52;;;;;;;10.23;7.30;;;24.60;99.90;;;;;;5113898;28;20626;-53
2023/06/21 05:46:19;;;;;;;10.85;7.85;;;24.70;99.90;;;;;;5113006;28;20227;-54
2023/06/21 05:48:47;;;;;;;8.35;6.82;;;24.80;99.90;;;;;;5113174;28;20203;-53
2023/06/21 05:51:14;;;;;;;12.25;7.35;;;24.80;99.90;;;;;;5113306;28;20227;-52
2023/06/21 05:53:41;;;;;;;13.02;7.57;;;25.00;99.90;;;;;;5113224;28;20204;-54
2023/06/21 05:56:08;;;;;;;8.88;6.80;;;25.20;99.90;;;;;;5112945;28;20212;-52
2023/06/21 05:58:35;;;;;;;9.57;6.40;;;25.50;99.90;;;;;;5113392;28;20223;-52
2023/06/21 06:01:02;;;;;;;9.43;5.70;;;26.00;99.90;;;;;;5113470;28;20203;-52
2023/06/21 06:03:29;;;;;;;7.07;5.95;;;26.40;99.90;;;;;;5113072;28;20199;-52
2023/06/21 06:05:57;;;;;;;8.48;6.03;;;27.00;99.90;;;;;;5112677;28;20206;-53
2023/06/21 06:08:24;;;;;;;9.48;5.85;;;27.90;99.90;;;;;;5113251;28;20619;-52
2023/06/21 06:10:51;;;;;;;8.80;6.88;;;28.60;99.90;;;;;;5112911;28;20224;-53
2023/06/21 06:13:17;;;;;;;11.13;6.97;;;28.80;99.90;;;;;;5112787;28;20677;-53
2023/06/21 06:15:44;;;;;;;10.18;7.15;;;28.80;99.90;;;;;;5112687;28;20211;-53
2023/06/21 06:18:11;;;;;;;9.25;6.60;;;28.70;99.90;;;;;;5112755;28;20232;-52
2023/06/21 06:20:37;;;;;;;6.97;6.18;;;28.50;99.90;;;;;;5112732;28;20199;-52
2023/06/21 06:23:09;;;;;;;7.55;5.80;;;28.50;99.90;;;;;;5113023;28;20559;-52
2023/06/21 06:25:36;;;;;;;6.97;5.53;;;28.50;99.90;;;;;;5112597;28;20207;-52
2023/06/21 06:28:03;;;;;;;6.97;6.10;;;28.60;99.90;;;;;;5112312;28;20270;-52
2023/06/21 06:30:30;;;;;;;7.70;6.05;;;28.90;99.90;;;;;;5112583;28;20253;-52
2023/06/21 06:32:56;;;;;;;6.80;5.70;;;28.90;99.90;;;;;;5112462;28;20704;-53
2023/06/21 06:35:23;;;;;;;6.55;5.40;;;28.90;99.90;;;;;;5111909;28;20613;-53
2023/06/21 06:37:50;;;;;;;8.35;5.70;;;28.60;99.90;;;;;;5112499;28;20227;-53
2023/06/21 06:40:18;;;;;;;9.80;5.97;;;28.20;99.90;;;;;;5112498;28;20250;-53
2023/06/21 06:42:44;;;;;;;11.40;6.47;;;28.10;99.90;;;;;;5112398;28;20203;-54
2023/06/21 06:45:11;;;;;;;7.38;5.30;;;28.10;99.90;;;;;;5112322;28;20615;-52
2023/06/21 06:47:38;;;;;;;7.72;5.90;;;28.10;99.90;;;;;;5112035;28;20254;-53
2023/06/21 06:50:07;;;;;;;10.73;6.25;;;28.20;99.90;;;;;;5112531;28;20199;-54
2023/06/21 06:52:33;;;;;;;8.27;5.53;;;28.30;99.90;;;;;;5112300;28;20236;-53
2023/06/21 06:55:01;;;;;;;8.32;5.80;;;28.50;99.90;;;;;;5112015;28;20216;-53
2023/06/21 06:57:29;;;;;;;9.52;6.05;;;28.50;99.90;;;;;;5111746;28;20223;-53
2023/06/21 06:59:56;;;;;;;9.52;5.35;;;28.80;99.90;;;;;;5111940;28;20199;-53
2023/06/21 07:02:22;;;;;;;7.60;5.32;;;29.80;99.90;;;;;;5112056;28;20202;-53
2023/06/21 07:04:49;;;;;;;9.77;5.45;;;31.70;99.90;;;;;;5112144;28;20200;-53
2023/06/21 07:07:16;;;;;;;8.55;5.00;;;33.50;99.90;;;;;;5111878;28;20228;-53
2023/06/21 07:09:42;;;;;;;8.07;4.82;;;34.50;98.10;;;;;;5111936;28;20203;-53
2023/06/21 07:12:10;;;;;;;7.40;4.57;;;34.80;96.50;;;;;;5111694;28;20215;-53
2023/06/21 07:14:38;;;;;;;6.85;4.95;;;34.60;95.50;;;;;;5111446;28;20218;-53
2023/06/21 07:17:05;;;;;;;6.45;4.70;;;34.20;95.20;;;;;;5111359;28;20230;-53
2023/06/21 07:19:32;;;;;;;6.80;4.55;;;33.70;95.00;;;;;;5111996;28;20203;-53
2023/06/21 07:21:58;;;;;;;5.82;3.90;;;33.50;95.10;;;;;;5111944;28;20200;-53
2023/06/21 07:24:25;;;;;;;8.23;4.15;;;34.00;93.40;;;;;;5111724;28;20207;-55
2023/06/21 07:26:52;;;;;;;5.35;3.80;;;35.00;90.70;;;;;;5131528;22;20242;-64
2023/06/21 07:29:19;;;;;;;4.10;3.70;;;35.50;88.70;;;;;;5068015;28;20625;-64
2023/06/21 07:31:48;;;;;;;5.18;3.80;;;35.70;87.20;;;;;;5090087;28;20231;-63
2023/06/21 07:34:15;;;;;;;5.63;3.88;;;36.40;85.30;;;;;;5091350;28;20204;-62
2023/06/21 07:36:41;;;;;;;10.13;4.07;;;36.90;79.60;;;;;;5090814;28;20212;-63
2023/06/21 07:39:08;;;;;;;6.57;3.95;;;37.70;79.40;;;;;;5072689;28;20213;-64
2023/06/21 07:41:35;;;;;;;6.55;4.57;;;39.40;74.90;;;;;;5070798;28;20294;-63
2023/06/21 07:44:02;;;;;;;6.80;4.85;;;40.70;69.10;;;;;;5070165;28;20219;-61
2023/06/21 07:46:28;;;;;;;7.30;4.57;;;41.40;63.70;;;;;;5070489;28;20232;-63
2023/06/21 07:48:56;;;;;;;7.63;4.80;;;40.10;64.80;;;;;;5074140;28;20224;-61
2023/06/21 07:51:23;;;;;;;7.28;4.85;;;38.80;69.80;;;;;;5074692;28;20297;-61
2023/06/21 07:53:49;;;;;;;5.85;5.05;;;38.80;69.00;;;;;;5074960;28;20209;-62
2023/06/21 07:56:16;;;;;;;8.73;4.38;;;38.90;68.70;;;;;;5073744;28;20258;-61
2023/06/21 07:58:43;;;;;;;7.68;4.32;;;38.40;68.70;;;;;;5074769;28;20350;-60
2023/06/21 08:01:12;;;;;;;7.13;4.40;;;38.10;70.40;;;;;;5074666;28;20682;-61
2023/06/21 08:03:38;;;;;;;5.43;4.30;;;38.00;69.20;;;;;;5074747;28;20212;-61
2023/06/21 08:06:06;;;;;;;6.50;4.40;;;38.00;69.60;;;;;;5074197;28;20212;-61
2023/06/21 08:08:33;;;;;;;5.07;3.97;;;38.30;69.40;;;;;;5074098;28;20234;-60
2023/06/21 08:10:59;;;;;;;7.20;4.15;;;38.20;69.90;;;;;;5074217;28;20216;-61
2023/06/21 08:13:26;;;;;;;5.28;3.92;;;38.00;68.70;;;;;;5074502;28;20228;-62
2023/06/21 08:15:53;;;;;;;4.38;3.78;;;37.70;70.40;;;;;;5074546;28;20653;-63
2023/06/21 08:18:20;;;;;;;6.85;3.67;;;37.10;70.00;;;;;;5074304;28;20228;-62
2023/06/21 08:20:47;;;;;;;7.18;4.13;;;36.40;71.60;;;;;;5073799;28;20698;-59
2023/06/21 08:23:15;;;;;;;6.32;4.35;;;36.00;73.60;;;;;;5074159;28;20569;-59
2023/06/21 08:25:42;;;;;;;5.53;4.00;;;36.00;73.00;;;;;;5074090;28;20216;-59
2023/06/21 08:28:08;;;;;;;5.72;4.30;;;35.80;73.40;;;;;;5073840;28;20236;-60
2023/06/21 08:30:35;;;;;;;5.75;4.68;;;35.40;74.00;;;;;;5074072;28;20250;-59
2023/06/21 08:33:02;;;;;;;5.85;4.25;;;35.30;75.40;;;;;;5073922;28;20613;-62
2023/06/21 08:35:30;;;;;;;6.38;4.50;;;34.60;76.40;;;;;;5074057;28;20211;-62
2023/06/21 08:37:58;;;;;;;4.18;3.67;;;34.10;79.20;;;;;;5073707;28;20224;-61
2023/06/21 08:40:28;;;;;;;9.93;5.13;;;33.40;81.00;;;;;;5073993;28;20208;-58
2023/06/21 08:42:55;;;;;;;6.93;4.78;;;32.80;86.30;;;;;;5074381;28;20216;-64
2023/06/21 08:45:22;;;;;;;4.55;4.03;;;32.20;90.70;;;;;;5073592;28;20209;-61
2023/06/21 08:47:51;;;;;;;5.32;3.83;;;31.70;92.20;;;;;;5073073;28;20733;-64
2023/06/21 08:50:19;;;;;;;4.30;3.55;;;31.20;92.60;;;;;;5072599;28;20481;-63
2023/06/21 08:52:48;;;;;;;5.40;2.97;;;30.60;94.00;;;;;;5072560;28;20335;-67
2023/06/21 08:55:16;;;;;;;4.20;2.85;;;30.10;94.30;;;;;;5063144;28;20631;-63
2023/06/21 08:57:49;;;;;;;8.13;3.20;;;29.70;94.10;;;;;;5070709;28;20230;-62
2023/06/21 09:00:21;;;;;;;6.43;2.88;;;29.30;95.10;;;;;;5073233;28;20209;-62
2023/06/21 09:02:54;;;;;;;5.43;3.33;;;29.00;96.20;;;;;;5073786;28;20201;-65
2023/06/21 09:05:28;;;;;;;6.93;3.70;;;28.70;97.40;;;;;;5073654;28;20209;-64
2023/06/21 09:07:56;;;;;;;5.88;5.25;;;28.60;98.70;;;;;;5072544;28;20255;-63
2023/06/21 09:10:23;;;;;;;7.68;4.20;;;28.50;99.90;;;;;;5073044;28;20205;-60
2023/06/21 09:12:54;;;;;;;9.18;4.55;;;28.40;99.90;;;;;;5073444;28;20654;-60
2023/06/21 09:15:22;;;;;;;5.78;4.40;;;28.40;99.90;;;;;;5072976;28;20211;-62
2023/06/21 09:17:50;;;;;;;10.05;4.88;;;28.30;99.90;;;;;;5072746;28;20237;-64
2023/06/21 09:20:17;;;;;;;8.60;5.20;;;28.10;99.90;;;;;;5073405;28;20204;-61
2023/06/21 09:22:46;;;;;;;7.60;4.78;;;28.00;99.90;;;;;;5072945;28;20213;-62
2023/06/21 09:25:13;;;;;;;9.40;5.10;;;27.80;99.90;;;;;;5073266;28;20216;-58
2023/06/21 09:27:40;;;;;;;8.15;3.63;;;27.60;99.90;;;;;;5072433;28;20647;-61
2023/06/21 09:30:09;;;;;;;5.90;3.55;;;27.40;99.90;;;;;;5072359;28;20262;-61
2023/06/21 09:32:36;;;;;;;8.73;3.97;;;27.20;99.90;;;;;;5073373;28;20236;-63
2023/06/21 09:35:04;;;;;;;7.50;3.53;;;27.10;99.90;;;;;;5072295;28;20596;-64
2023/06/21 09:37:34;;;;;;;6.95;3.63;;;26.90;99.90;;;;;;5072611;28;20257;-61
2023/06/21 09:40:01;;;;;;;7.95;4.05;;;26.70;99.90;;;;;;5072513;28;20212;-59
2023/06/21 09:42:29;;;;;;;7.57;4.00;;;26.50;99.90;;;;;;5072931;28;20197;-61
2023/06/21 09:44:56;;;;;;;7.68;4.32;;;26.10;99.90;;;;;;5073454;28;20213;-59
2023/06/21 09:47:29;;;;;;;6.00;4.43;;;25.70;99.90;;;;;;5072160;28;20224;-59
2023/06/21 09:49:56;;;;;;;6.95;4.50;;;25.30;99.90;;;;;;5073341;28;20300;-62
2023/06/21 09:52:23;;;;;;;8.60;4.47;;;25.00;99.90;;;;;;5074322;28;20560;-60
2023/06/21 09:54:51;;;;;;;7.35;4.20;;;24.70;99.90;;;;;;5072717;28;20212;-60
2023/06/21 09:57:17;;;;;;;7.47;4.40;;;24.50;99.90;;;;;;5072216;28;20312;-60
2023/06/21 09:59:49;;;;;;;9.05;4.35;;;24.40;99.90;;;;;;5072763;28;20616;-60
2023/06/21 10:02:16;;;;;;;8.25;4.13;;;24.10;99.90;;;;;;5072061;28;20662;-60
2023/06/21 10:04:45;;;;;;;10.02;3.88;;;23.60;99.90;;;;;;5072168;28;20209;-60
2023/06/21 10:07:14;;;;;;;9.50;4.30;;;22.90;99.90;;;;;;5071290;28;20873;-59
2023/06/21 10:09:42;;;;;;;7.70;4.38;;;22.10;99.90;;;;;;5070720;28;20745;-59
2023/06/21 10:12:11;;;;;;;7.15;4.68;;;21.80;99.90;;;;;;5071560;28;20232;-59
2023/06/21 10:14:39;;;;;;;8.57;5.20;;;21.60;99.90;;;;;;5071865;28;20403;-58
2023/06/21 10:17:06;;;;;;;10.18;5.15;;;21.60;99.90;;;;;;5071307;28;20718;-59
2023/06/21 10:19:34;;;;;;;8.77;5.35;;;21.70;99.90;;;;;;5071470;28;20262;-63
2023/06/21 10:22:08;;;;;;;8.93;5.93;;;21.70;99.90;;;;;;5071457;28;20247;-61
2023/06/21 10:24:40;;;;;;;21.63;14.48;;;21.80;99.90;;;;;;5071615;28;20216;-62
2023/06/21 10:27:07;;;;;;;10.48;5.55;;;21.90;99.90;;;;;;5071076;28;20243;-64
2023/06/21 10:29:35;;;;;;;9.73;5.28;;;22.00;99.90;;;;;;5071727;28;20209;-60
2023/06/21 10:32:04;;;;;;;12.68;5.90;;;22.10;99.90;;;;;;5071470;28;20641;-59
2023/06/21 10:34:45;;;;;;;10.32;6.30;;;22.20;99.90;;;;;;5071226;28;20209;-60
2023/06/21 10:37:21;;;;;;;12.30;5.35;;;22.20;99.90;;;;;;5071309;28;20232;-60
2023/06/21 10:39:52;;;;;;;11.65;6.78;;;22.20;99.90;;;;;;5071450;28;20205;-60
2023/06/21 10:42:20;;;;;;;9.90;6.35;;;22.30;99.90;;;;;;5071124;28;20282;-60
2023/06/21 10:44:49;;;;;;;10.65;6.22;;;22.30;99.90;;;;;;5071326;28;20204;-60
2023/06/21 10:47:16;;;;;;;12.32;7.20;;;22.40;99.90;;;;;;5070950;28;20229;-59
2023/06/21 10:49:43;;;;;;;8.32;5.55;;;22.50;99.90;;;;;;5071193;28;20286;-60
2023/06/21 10:52:11;;;;;;;8.52;5.78;;;22.60;99.90;;;;;;5071223;28;20207;-59
2023/06/21 10:54:39;;;;;;;13.90;6.82;;;22.60;99.90;;;;;;5070890;28;20204;-60
2023/06/21 10:57:06;;;;;;;9.63;5.82;;;22.80;99.90;;;;;;5070732;28;20233;-60
2023/06/21 10:59:34;;;;;;;10.80;5.95;;;23.00;99.90;;;;;;5070833;28;20221;-60
2023/06/21 11:02:01;;;;;;;9.38;5.90;;;23.30;99.90;;;;;;5071274;28;20556;-60
2023/06/21 11:04:28;;;;;;;8.73;4.70;;;23.70;99.90;;;;;;5071165;28;20272;-60
2023/06/21 11:06:59;;;;;;;6.65;4.75;;;24.00;99.90;;;;;;5070920;28;20205;-59
2023/06/21 11:09:25;;;;;;;8.15;4.45;;;24.50;99.90;;;;;;5071063;28;20315;-59
2023/06/21 11:11:54;;;;;;;5.80;4.93;;;24.80;99.90;;;;;;5070915;28;20217;-60
2023/06/21 11:14:26;;;;;;;9.77;4.88;;;25.00;99.90;;;;;;5070729;28;20272;-60
2023/06/21 11:17:07;;;;;;;6.05;4.00;;;25.30;99.90;;;;;;5070544;28;20205;-61
2023/06/21 11:19:36;;;;;;;5.07;4.05;;;25.60;99.90;;;;;;5070943;28;20572;-61
2023/06/21 11:22:15;;;;;;;7.05;4.05;;;25.80;99.90;;;;;;5070581;28;20652;-61
2023/06/21 11:24:50;;;;;;;6.25;3.72;;;26.10;99.90;;;;;;5070652;28;20616;-61
2023/06/21 11:27:18;;;;;;;7.22;3.58;;;26.50;99.90;;;;;;5070116;28;20234;-60
2023/06/21 11:29:59;;;;;;;9.18;4.53;;;26.80;99.90;;;;;;5070866;28;20700;-60
2023/06/21 11:32:29;;;;;;;7.00;3.83;;;27.40;99.90;;;;;;5070917;28;20698;-60
2023/06/21 11:34:57;;;;;;;4.85;3.28;;;28.00;99.90;;;;;;5071101;28;20209;-60
2023/06/21 11:37:40;;;;;;;6.75;3.55;;;28.40;99.90;;;;;;5070426;28;20313;-60
2023/06/21 11:40:08;;;;;;;3.47;2.55;;;28.90;99.90;;;;;;5071332;28;20205;-61
2023/06/21 11:42:37;;;;;;;8.30;3.65;;;29.20;99.90;;;;;;5070734;28;20282;-61
2023/06/21 11:45:21;;;;;;;5.07;3.35;;;29.40;99.90;;;;;;5070403;28;20591;-60
2023/06/21 11:48:08;;;;;;;4.93;3.35;;;29.70;99.90;;;;;;5070296;28;20232;-60
2023/06/21 11:50:35;;;;;;;9.10;4.15;;;29.90;99.90;;;;;;5070837;28;20204;-62
2023/06/21 11:53:18;;;;;;;6.40;3.17;;;30.00;99.90;;;;;;5070626;28;20221;-61
2023/06/21 11:55:46;;;;;;;3.75;3.22;;;30.10;99.90;;;;;;5070484;28;20295;-60
2023/06/21 11:58:14;;;;;;;3.97;3.03;;;30.50;99.90;;;;;;5070373;28;20224;-60
2023/06/21 12:00:41;;;;;;;7.10;3.30;;;30.60;99.90;;;;;;5070810;28;20232;-60
2023/06/21 12:03:11;;;;;;;6.30;3.67;;;30.70;99.90;;;;;;5071226;28;20208;-61
2023/06/21 12:05:46;;;;;;;4.13;3.40;;;30.90;99.90;;;;;;5070726;28;20208;-60
2023/06/21 12:08:13;;;;;;;6.93;3.63;;;31.10;99.90;;;;;;5070546;28;20232;-62
2023/06/21 12:10:41;;;;;;;6.15;3.65;;;31.10;99.90;;;;;;5070548;28;20208;-61
2023/06/21 12:13:08;;;;;;;4.22;3.28;;;31.00;99.90;;;;;;5071276;28;20221;-59
2023/06/21 12:15:36;;;;;;;4.55;3.15;;;30.70;99.90;;;;;;5070985;28;20292;-61
2023/06/21 12:18:06;;;;;;;5.50;4.07;;;30.50;99.90;;;;;;5070457;28;20232;-60
2023/06/21 12:20:33;;;;;;;5.05;3.30;;;30.30;99.90;;;;;;5071321;28;20216;-61
2023/06/21 12:22:59;;;;;;;5.57;3.67;;;30.40;99.90;;;;;;5070197;28;20209;-59
2023/06/21 12:25:26;;;;;;;4.80;3.50;;;30.70;99.90;;;;;;5070171;28;20200;-61
2023/06/21 12:27:55;;;;;;;4.90;3.50;;;31.10;99.90;;;;;;5069987;28;20304;-61
2023/06/21 12:30:22;;;;;;;6.93;4.35;;;31.50;99.90;;;;;;5070355;28;20288;-61
2023/06/21 12:32:50;;;;;;;5.80;4.22;;;31.60;99.90;;;;;;5070152;28;20639;-61
2023/06/21 12:35:18;;;;;;;6.63;4.47;;;31.60;99.90;;;;;;5074285;28;20216;-61
2023/06/21 12:37:46;;;;;;;7.05;4.50;;;31.50;99.90;;;;;;5073360;28;20311;-62
2023/06/21 12:40:16;;;;;;;6.65;4.80;;;31.50;99.90;;;;;;5074205;28;20239;-61
2023/06/21 12:42:45;;;;;;;5.85;5.25;;;31.90;99.90;;;;;;5073835;28;20208;-61
2023/06/21 12:45:19;;;;;;;7.03;5.28;;;32.10;99.90;;;;;;5073625;28;20626;-60
2023/06/21 12:47:49;;;;;;;8.23;5.75;;;32.20;99.90;;;;;;5073545;28;20262;-61